Time;durP1;ratioP1;P1;durP2;ratioP2;P2;SDS_P1;SDS_P2;PMS_P1;PMS_P2;Temp;Humidity;BMP_temperature;BMP_pressure;BME280_temperature;BME280_humidity;BME280_pressure;Samples;Min_cycle;Max_cycle;Signal;HPM_P1;HPM_P2
2022/06/12 00:00:30;;;;;;;5.20;2.63;;;;;;;;;;4997551;28;20541;-71
2022/06/12 00:02:56;;;;;;;7.00;2.33;;;;;;;;;;4998698;28;20029;-71
2022/06/12 00:05:22;;;;;;;5.22;2.25;;;;;;;;;;5000442;28;20038;-71
2022/06/12 00:07:47;;;;;;;7.60;2.60;;;;;;;;;;4993921;28;20059;-71
2022/06/12 00:10:13;;;;;;;7.20;2.20;;;;;;;;;;4994456;28;20061;-71
2022/06/12 00:12:40;;;;;;;6.72;2.53;;;;;;;;;;4997840;28;20289;-70
2022/06/12 00:15:06;;;;;;;5.10;2.03;;;;;;;;;;5006893;28;20052;-71
2022/06/12 00:17:31;;;;;;;4.18;2.38;;;;;;;;;;4995946;28;20034;-71
2022/06/12 00:19:56;;;;;;;6.13;2.20;;;;;;;;;;4996735;28;20038;-71
2022/06/12 00:22:21;;;;;;;5.22;2.08;;;;;;;;;;4997933;28;20125;-71
2022/06/12 00:24:47;;;;;;;3.33;2.07;;;;;;;;;;4995888;28;20516;-71
2022/06/12 00:27:12;;;;;;;4.37;2.03;;;;;;;;;;4997819;28;20275;-70
2022/06/12 00:29:38;;;;;;;4.43;1.85;;;;;;;;;;4999147;28;20357;-70
2022/06/12 00:32:24;;;;;;;5.40;2.33;;;;;;;;;;5004366;28;20065;-70
2022/06/12 00:34:51;;;;;;;4.75;2.22;;;;;;;;;;4998051;28;20054;-70
2022/06/12 00:37:18;;;;;;;5.38;2.38;;;;;;;;;;4999797;28;20029;-70
2022/06/12 00:39:43;;;;;;;6.50;2.30;;;;;;;;;;4997583;28;20021;-71
2022/06/12 00:42:16;;;;;;;4.05;2.40;;;;;;;;;;4997995;28;20535;-71
2022/06/12 00:44:42;;;;;;;6.60;2.42;;;;;;;;;;5001738;28;20018;-70
2022/06/12 00:47:10;;;;;;;5.15;2.28;;;;;;;;;;4999470;28;20023;-70
2022/06/12 00:49:39;;;;;;;6.72;2.38;;;;;;;;;;5003140;28;20038;-70
2022/06/12 00:52:15;;;;;;;5.32;2.20;;;;;;;;;;4980155;28;20013;-70
2022/06/12 00:54:42;;;;;;;3.63;2.17;;;;;;;;;;5000613;28;20160;-71
2022/06/12 00:57:08;;;;;;;4.55;1.83;;;;;;;;;;5003543;28;20397;-71
2022/06/12 00:59:33;;;;;;;5.80;2.28;;;;;;;;;;5005513;28;20030;-71
2022/06/12 01:01:58;;;;;;;4.80;2.22;;;;;;;;;;5004166;28;20527;-70
2022/06/12 01:07:12;;;;;;;4.47;1.98;;;;;;;;;;5006973;28;20064;-71
2022/06/12 01:09:39;;;;;;;4.43;2.17;;;;;;;;;;4995063;28;20369;-70
2022/06/12 01:12:06;;;;;;;6.28;2.08;;;;;;;;;;4999272;28;20029;-71
2022/06/12 01:14:35;;;;;;;4.68;2.45;;;;;;;;;;4995978;28;20045;-71
2022/06/12 01:17:01;;;;;;;4.03;2.90;;;;;;;;;;4997541;28;20034;-70
2022/06/12 01:19:26;;;;;;;6.03;2.72;;;;;;;;;;4999947;28;20374;-71
2022/06/12 01:21:54;;;;;;;6.72;3.03;;;;;;;;;;4999799;28;20048;-71
2022/06/12 01:24:45;;;;;;;5.35;2.58;;;;;;;;;;5000297;28;20026;-71
2022/06/12 01:27:32;;;;;;;9.13;3.22;;;;;;;;;;4998318;28;20151;-70
2022/06/12 01:30:03;;;;;;;9.50;2.90;;;;;;;;;;4999499;28;20554;-71
2022/06/12 01:32:28;;;;;;;10.63;3.63;;;;;;;;;;4996362;28;20023;-71
2022/06/12 01:34:59;;;;;;;6.37;3.40;;;;;;;;;;4995977;28;20026;-71
2022/06/12 01:37:25;;;;;;;4.82;3.10;;;;;;;;;;5000737;28;20275;-70
2022/06/12 01:40:05;;;;;;;6.53;2.80;;;;;;;;;;4996496;28;20022;-70
2022/06/12 01:42:33;;;;;;;8.50;2.90;;;;;;;;;;5001045;28;20037;-71
2022/06/12 01:45:05;;;;;;;4.78;2.60;;;;;;;;;;4982093;28;20033;-71
2022/06/12 01:47:46;;;;;;;8.77;3.55;;;;;;;;;;5001649;28;20465;-71
2022/06/12 01:50:20;;;;;;;9.13;3.28;;;;;;;;;;5000303;28;20022;-70
2022/06/12 01:52:45;;;;;;;5.80;2.80;;;;;;;;;;5001402;28;20022;-71
2022/06/12 01:55:14;;;;;;;5.80;3.10;;;;;;;;;;5001179;28;20038;-71
2022/06/12 01:57:42;;;;;;;6.18;3.33;;;;;;;;;;5000604;28;20586;-71
2022/06/12 02:00:08;;;;;;;8.68;3.45;;;;;;;;;;4994773;28;20117;-70
2022/06/12 02:02:53;;;;;;;7.10;3.58;;;;;;;;;;5000493;28;20030;-71
2022/06/12 02:05:25;;;;;;;5.47;3.53;;;;;;;;;;4993776;28;20034;-70
2022/06/12 02:07:53;;;;;;;11.32;3.20;;;;;;;;;;4999013;28;20072;-70
2022/06/12 02:10:23;;;;;;;8.10;3.45;;;;;;;;;;4991257;28;20014;-70
2022/06/12 02:13:11;;;;;;;6.97;3.20;;;;;;;;;;4998520;28;20022;-70
2022/06/12 02:15:54;;;;;;;4.03;3.55;;;;;;;;;;4997599;28;20462;-71
2022/06/12 02:18:20;;;;;;;12.52;4.18;;;;;;;;;;4997735;28;20026;-71
2022/06/12 02:20:48;;;;;;;8.33;3.67;;;;;;;;;;4992416;28;20067;-70
2022/06/12 02:23:21;;;;;;;7.30;3.80;;;;;;;;;;4994619;28;20597;-70
2022/06/12 02:25:47;;;;;;;9.15;3.58;;;;;;;;;;4983738;28;20049;-70
2022/06/12 02:28:17;;;;;;;8.75;4.00;;;;;;;;;;4998332;28;20113;-70
2022/06/12 02:30:44;;;;;;;10.75;3.83;;;;;;;;;;5001233;28;20022;-71
2022/06/12 02:33:23;;;;;;;5.97;3.65;;;;;;;;;;4997982;28;20045;-70
2022/06/12 02:35:50;;;;;;;8.75;4.13;;;;;;;;;;4996204;28;20084;-71
2022/06/12 02:38:27;;;;;;;9.98;4.10;;;;;;;;;;4997827;28;20384;-71
2022/06/12 02:40:56;;;;;;;8.20;3.95;;;;;;;;;;4998582;28;20022;-71
2022/06/12 02:43:24;;;;;;;11.13;4.25;;;;;;;;;;5000134;28;20018;-70
2022/06/12 02:46:12;;;;;;;11.85;4.40;;;;;;;;;;4994296;28;20088;-71
2022/06/12 02:48:38;;;;;;;12.43;4.70;;;;;;;;;;4989971;28;20040;-71
2022/06/12 02:51:11;;;;;;;6.97;4.57;;;;;;;;;;4996554;28;20018;-71
2022/06/12 02:53:36;;;;;;;11.77;5.03;;;;;;;;;;5001083;28;20025;-71
2022/06/12 02:56:15;;;;;;;8.82;4.55;;;;;;;;;;4996394;28;20034;-71
2022/06/12 02:58:46;;;;;;;8.80;4.55;;;;;;;;;;4997070;28;20026;-71
2022/06/12 03:01:14;;;;;;;7.75;4.22;;;;;;;;;;4999686;28;20039;-71
2022/06/12 03:03:40;;;;;;;21.75;5.13;;;;;;;;;;4999993;28;20422;-71
2022/06/12 03:06:05;;;;;;;12.00;4.70;;;;;;;;;;4997955;28;20071;-71
2022/06/12 03:08:34;;;;;;;15.80;4.85;;;;;;;;;;4997594;28;20354;-70
2022/06/12 03:11:06;;;;;;;8.60;4.18;;;;;;;;;;5003285;28;20022;-71
2022/06/12 03:13:32;;;;;;;10.15;4.82;;;;;;;;;;5003560;28;20026;-71
2022/06/12 03:15:58;;;;;;;10.00;4.57;;;;;;;;;;5002171;28;20015;-71
2022/06/12 03:18:32;;;;;;;12.57;5.15;;;;;;;;;;4988373;28;20037;-71
2022/06/12 03:21:07;;;;;;;11.90;4.45;;;;;;;;;;5004405;28;20488;-71
2022/06/12 03:23:35;;;;;;;12.80;4.65;;;;;;;;;;5000605;28;20133;-71
2022/06/12 03:26:02;;;;;;;11.73;4.30;;;;;;;;;;4999968;28;20028;-71
2022/06/12 03:28:34;;;;;;;14.13;4.45;;;;;;;;;;4993824;28;20031;-71
2022/06/12 03:31:12;;;;;;;12.52;4.55;;;;;;;;;;4995752;28;20017;-71
2022/06/12 03:33:45;;;;;;;8.00;4.25;;;;;;;;;;5000295;28;20026;-71
2022/06/12 03:36:14;;;;;;;8.48;4.20;;;;;;;;;;4979897;28;20484;-71
2022/06/12 03:39:05;;;;;;;14.75;5.38;;;;;;;;;;4993727;28;20028;-71
2022/06/12 03:41:51;;;;;;;9.77;4.25;;;;;;;;;;4973619;28;20034;-71
2022/06/12 03:44:16;;;;;;;12.13;4.10;;;;;;;;;;5000790;28;20029;-71
2022/06/12 03:47:20;;;;;;;18.93;4.57;;;;;;;;;;4996970;28;20130;-71
2022/06/12 03:49:52;;;;;;;10.82;4.22;;;;;;;;;;4923360;29;20321;-71
2022/06/12 03:52:26;;;;;;;11.00;3.80;;;;;;;;;;4916400;29;20034;-71
2022/06/12 03:54:56;;;;;;;12.10;4.07;;;;;;;;;;4962377;28;20030;-71
2022/06/12 04:00:10;;;;;;;14.10;4.53;;;;;;;;;;4995430;28;20053;-71
2022/06/12 04:02:36;;;;;;;9.88;4.25;;;;;;;;;;5001023;28;20438;-71
2022/06/12 04:05:01;;;;;;;9.82;3.78;;;;;;;;;;4997192;28;20030;-71
2022/06/12 04:07:28;;;;;;;7.28;3.50;;;;;;;;;;4992967;28;20033;-71
2022/06/12 04:09:55;;;;;;;13.05;4.20;;;;;;;;;;4998589;28;20068;-70
2022/06/12 04:12:25;;;;;;;7.65;3.55;;;;;;;;;;4994048;28;20069;-71
2022/06/12 04:15:04;;;;;;;9.70;3.42;;;;;;;;;;4997291;28;20116;-70
2022/06/12 04:17:29;;;;;;;14.60;4.72;;;;;;;;;;4999384;28;20030;-71
2022/06/12 04:20:03;;;;;;;6.30;4.00;;;;;;;;;;4995664;28;20081;-71
2022/06/12 04:22:41;;;;;;;14.68;4.53;;;;;;;;;;4999207;28;20033;-71
2022/06/12 04:25:27;;;;;;;15.73;4.88;;;;;;;;;;5009439;28;20034;-70
2022/06/12 04:27:52;;;;;;;7.63;3.28;;;;;;;;;;4999145;28;20477;-70
2022/06/12 04:30:19;;;;;;;11.15;4.10;;;;;;;;;;4997367;28;20049;-70
2022/06/12 04:32:45;;;;;;;7.47;4.03;;;;;;;;;;4997510;28;20030;-71
2022/06/12 04:35:11;;;;;;;12.88;3.95;;;;;;;;;;4998911;28;20030;-70
2022/06/12 04:37:36;;;;;;;7.68;4.18;;;;;;;;;;4996448;28;20388;-70
2022/06/12 04:40:03;;;;;;;10.25;4.65;;;;;;;;;;4993102;28;20691;-71
2022/06/12 04:42:31;;;;;;;10.15;5.00;;;;;;;;;;4995060;28;20025;-70
2022/06/12 04:45:00;;;;;;;11.63;3.80;;;;;;;;;;4995662;28;20026;-70
2022/06/12 04:47:26;;;;;;;9.85;4.25;;;;;;;;;;4996022;28;20448;-71
2022/06/12 04:49:52;;;;;;;10.77;4.78;;;;;;;;;;4995993;28;20026;-71
2022/06/12 04:52:21;;;;;;;11.60;4.00;;;;;;;;;;4992891;28;20011;-70
2022/06/12 04:54:46;;;;;;;10.00;3.78;;;;;;;;;;5001230;28;20491;-71
2022/06/12 04:57:12;;;;;;;20.80;4.32;;;;;;;;;;4995290;28;20045;-71
2022/06/12 04:59:37;;;;;;;9.75;4.10;;;;;;;;;;4999607;28;20455;-71
2022/06/12 05:02:02;;;;;;;11.02;4.68;;;;;;;;;;5000228;28;20026;-71
2022/06/12 05:04:28;;;;;;;10.93;4.45;;;;;;;;;;4995558;28;20372;-71
2022/06/12 05:06:54;;;;;;;12.52;4.20;;;;;;;;;;5001071;28;20022;-74
2022/06/12 05:09:20;;;;;;;15.50;4.15;;;;;;;;;;4995766;28;20324;-71
2022/06/12 05:11:46;;;;;;;18.90;5.43;;;;;;;;;;4999597;28;20080;-71
2022/06/12 05:14:11;;;;;;;13.03;4.20;;;;;;;;;;4999366;28;20654;-71
2022/06/12 05:16:42;;;;;;;15.43;4.53;;;;;;;;;;4999784;28;20032;-70
2022/06/12 05:19:10;;;;;;;10.07;4.70;;;;;;;;;;4983778;28;20575;-68
2022/06/12 05:21:35;;;;;;;10.85;4.93;;;;;;;;;;5001314;28;20491;-71
2022/06/12 05:24:01;;;;;;;14.55;4.65;;;;;;;;;;4998961;28;20029;-70
2022/06/12 05:26:27;;;;;;;17.27;5.07;;;;;;;;;;5003074;28;20531;-70
2022/06/12 05:28:53;;;;;;;15.23;4.88;;;;;;;;;;4997843;28;20113;-70
2022/06/12 05:31:18;;;;;;;10.05;5.35;;;;;;;;;;5000248;28;20349;-71
2022/06/12 05:33:44;;;;;;;9.77;4.30;;;;;;;;;;5000427;28;20053;-70
2022/06/12 05:36:10;;;;;;;16.58;4.65;;;;;;;;;;4998800;28;20271;-71
2022/06/12 05:38:35;;;;;;;13.23;5.05;;;;;;;;;;4997900;28;20030;-69
2022/06/12 05:41:01;;;;;;;10.60;5.65;;;;;;;;;;4997771;28;20022;-70
2022/06/12 05:43:26;;;;;;;14.45;4.30;;;;;;;;;;4996510;28;20036;-70
2022/06/12 05:45:51;;;;;;;23.77;6.97;;;;;;;;;;4998386;28;20022;-71
2022/06/12 05:48:18;;;;;;;15.53;5.03;;;;;;;;;;4998974;28;20125;-71
2022/06/12 05:51:01;;;;;;;12.85;5.07;;;;;;;;;;4998936;28;20268;-70
2022/06/12 05:53:28;;;;;;;11.75;4.43;;;;;;;;;;4997468;28;20026;-71
2022/06/12 05:55:54;;;;;;;18.88;6.22;;;;;;;;;;5002440;28;20030;-71
2022/06/12 05:58:20;;;;;;;9.43;4.20;;;;;;;;;;4997572;28;20084;-70
2022/06/12 06:00:46;;;;;;;9.00;4.10;;;;;;;;;;4992488;28;20493;-71
2022/06/12 06:03:12;;;;;;;18.95;4.82;;;;;;;;;;4998819;28;20038;-71
2022/06/12 06:05:38;;;;;;;19.17;4.63;;;;;;;;;;5007184;28;20025;-72
2022/06/12 06:08:04;;;;;;;14.65;4.55;;;;;;;;;;5006798;28;20045;-72
2022/06/12 06:10:30;;;;;;;16.00;5.35;;;;;;;;;;5006426;28;20022;-71
2022/06/12 06:12:55;;;;;;;16.10;4.63;;;;;;;;;;5000323;28;20029;-70
2022/06/12 06:15:20;;;;;;;14.30;4.23;;;;;;;;;;4999357;28;20278;-71
2022/06/12 06:17:46;;;;;;;15.45;4.93;;;;;;;;;;5001885;28;20362;-71
2022/06/12 06:20:17;;;;;;;19.80;4.38;;;;;;;;;;5012841;28;20428;-71
2022/06/12 06:22:43;;;;;;;15.95;5.50;;;;;;;;;;4998493;28;20067;-70
2022/06/12 06:25:08;;;;;;;19.40;6.13;;;;;;;;;;5000041;28;20042;-72
2022/06/12 06:27:33;;;;;;;15.50;5.93;;;;;;;;;;4996493;28;20828;-70
2022/06/12 06:29:59;;;;;;;15.67;5.33;;;;;;;;;;5002705;28;20104;-69
2022/06/12 06:32:24;;;;;;;14.05;5.45;;;;;;;;;;4998051;28;20381;-71
2022/06/12 06:34:50;;;;;;;16.25;4.75;;;;;;;;;;5003186;28;20034;-70
2022/06/12 06:37:15;;;;;;;31.83;7.87;;;;;;;;;;5005561;28;20117;-71
2022/06/12 06:39:41;;;;;;;16.52;6.18;;;;;;;;;;5006430;28;20388;-70
2022/06/12 06:42:07;;;;;;;14.00;5.07;;;;;;;;;;5000071;28;20061;-70
2022/06/12 06:47:16;;;;;;;14.88;5.30;;;;;;;;;;4998848;28;20233;-71
2022/06/12 06:49:41;;;;;;;23.45;6.05;;;;;;;;;;5004858;28;20116;-69
2022/06/12 06:52:07;;;;;;;15.33;4.87;;;;;;;;;;5000604;28;20022;-70
2022/06/12 06:54:32;;;;;;;17.02;5.38;;;;;;;;;;5005884;28;20105;-70
2022/06/12 06:56:57;;;;;;;20.25;5.30;;;;;;;;;;4998515;28;20134;-70
2022/06/12 06:59:22;;;;;;;19.48;5.03;;;;;;;;;;4986036;28;20529;-69
2022/06/12 07:01:48;;;;;;;18.83;7.07;;;;;;;;;;5005641;28;20490;-70
2022/06/12 07:04:13;;;;;;;17.40;5.37;;;;;;;;;;5003628;28;20091;-70
2022/06/12 07:06:39;;;;;;;23.95;6.57;;;;;;;;;;5005223;28;20465;-70
2022/06/12 07:09:05;;;;;;;27.08;6.00;;;;;;;;;;5005204;28;20041;-71
2022/06/12 07:11:30;;;;;;;18.63;5.95;;;;;;;;;;5003720;28;20029;-70
2022/06/12 07:13:58;;;;;;;21.02;5.93;;;;;;;;;;5005946;28;20064;-70
2022/06/12 07:16:25;;;;;;;14.27;4.63;;;;;;;;;;5015598;28;20064;-69
2022/06/12 07:18:51;;;;;;;12.15;4.25;;;;;;;;;;5000776;28;20032;-68
2022/06/12 07:21:17;;;;;;;15.15;4.95;;;;;;;;;;4998939;28;20062;-69
2022/06/12 07:23:42;;;;;;;14.98;5.22;;;;;;;;;;5002188;28;20064;-70
2022/06/12 07:26:09;;;;;;;19.20;4.90;;;;;;;;;;4988144;28;20460;-69
2022/06/12 07:28:35;;;;;;;14.95;5.57;;;;;;;;;;5006574;28;20081;-69
2022/06/12 07:31:01;;;;;;;17.80;4.72;;;;;;;;;;4999951;28;20025;-68
2022/06/12 07:33:26;;;;;;;19.83;4.95;;;;;;;;;;5005716;28;20029;-69
2022/06/12 07:35:52;;;;;;;16.08;4.72;;;;;;;;;;5005450;28;20108;-69
2022/06/12 07:38:18;;;;;;;14.73;5.10;;;;;;;;;;5007541;28;20040;-69
2022/06/12 07:40:48;;;;;;;15.25;5.00;;;;;;;;;;5004712;28;20066;-70
2022/06/12 07:43:14;;;;;;;23.20;5.03;;;;;;;;;;4985700;28;20192;-69
2022/06/12 07:45:39;;;;;;;12.13;4.75;;;;;;;;;;4999738;28;20537;-75
2022/06/12 07:48:05;;;;;;;17.98;5.35;;;;;;;;;;5010503;28;20030;-77
2022/06/12 07:50:31;;;;;;;13.30;4.95;;;;;;;;;;4987058;28;20068;-74
2022/06/12 07:52:58;;;;;;;13.77;4.30;;;;;;;;;;5007869;28;20510;-73
2022/06/12 07:55:23;;;;;;;15.82;4.80;;;;;;;;;;5006841;28;20040;-71
2022/06/12 07:57:49;;;;;;;19.17;4.57;;;;;;;;;;4982292;28;20022;-71
2022/06/12 08:00:14;;;;;;;16.80;5.03;;;;;;;;;;5003498;28;20030;-71
2022/06/12 08:02:40;;;;;;;18.70;5.20;;;;;;;;;;5018363;28;20672;-72
2022/06/12 08:05:06;;;;;;;10.68;4.25;;;;;;;;;;5014901;28;20034;-69
2022/06/12 08:07:31;;;;;;;14.40;4.60;;;;;;;;;;5010583;28;20029;-69
2022/06/12 08:09:56;;;;;;;17.90;4.45;;;;;;;;;;5013823;28;20044;-68
2022/06/12 08:12:22;;;;;;;18.05;4.53;;;;;;;;;;5002612;28;20456;-68
2022/06/12 08:14:47;;;;;;;16.40;4.88;;;;;;;;;;4998668;28;20046;-71
2022/06/12 08:17:12;;;;;;;20.13;6.10;;;;;;;;;;4988057;28;20040;-71
2022/06/12 08:22:21;;;;;;;14.55;5.00;;;;;;;;;;5005535;28;20053;-69
2022/06/12 08:24:46;;;;;;;16.50;4.40;;;;;;;;;;5006041;28;20417;-66
2022/06/12 08:27:12;;;;;;;21.37;5.07;;;;;;;;;;5007145;28;20271;-70
2022/06/12 08:29:37;;;;;;;14.55;4.40;;;;;;;;;;5004321;28;20720;-68
2022/06/12 08:32:05;;;;;;;12.68;4.78;;;;;;;;;;5006059;28;20068;-67
2022/06/12 08:34:36;;;;;;;15.38;4.63;;;;;;;;;;5003135;28;20484;-70
2022/06/12 08:37:03;;;;;;;14.10;4.82;;;;;;;;;;5008215;28;20088;-69
2022/06/12 08:39:28;;;;;;;11.85;4.38;;;;;;;;;;5004121;28;20030;-71
2022/06/12 08:42:01;;;;;;;11.23;3.80;;;;;;;;;;5009277;28;20057;-70
2022/06/12 08:44:26;;;;;;;16.63;4.50;;;;;;;;;;5002884;28;20021;-68
2022/06/12 08:46:59;;;;;;;17.17;4.45;;;;;;;;;;5001019;28;20021;-68
2022/06/12 08:49:27;;;;;;;16.13;4.70;;;;;;;;;;5008034;28;20026;-70
2022/06/12 08:52:01;;;;;;;15.60;5.25;;;;;;;;;;5001993;28;20022;-70
2022/06/12 08:54:30;;;;;;;12.18;4.72;;;;;;;;;;5010965;28;20037;-68
2022/06/12 08:57:01;;;;;;;14.95;5.22;;;;;;;;;;5011598;28;20026;-69
2022/06/12 08:59:38;;;;;;;16.48;4.57;;;;;;;;;;5017415;28;20062;-70
2022/06/12 09:02:05;;;;;;;16.88;5.15;;;;;;;;;;5013484;28;20062;-71
2022/06/12 09:04:30;;;;;;;17.02;5.30;;;;;;;;;;5008583;28;20026;-71
2022/06/12 09:07:12;;;;;;;15.45;4.32;;;;;;;;;;5005393;28;20029;-70
2022/06/12 09:09:37;;;;;;;16.85;5.43;;;;;;;;;;5011900;28;20036;-74
2022/06/12 09:12:18;;;;;;;14.60;5.00;;;;;;;;;;5014811;28;20097;-71
2022/06/12 09:14:43;;;;;;;11.57;3.50;;;;;;;;;;5002814;28;20026;-70
2022/06/12 09:17:09;;;;;;;8.52;2.83;;;;;;;;;;5018824;28;20028;-71
2022/06/12 09:19:41;;;;;;;12.52;2.83;;;;;;;;;;5015653;28;20033;-72
2022/06/12 09:22:25;;;;;;;9.35;3.05;;;;;;;;;;4999848;28;20037;-72
2022/06/12 09:24:51;;;;;;;11.23;3.45;;;;;;;;;;5001286;28;20032;-71
2022/06/12 09:27:32;;;;;;;7.82;2.85;;;;;;;;;;4998471;28;20026;-69
2022/06/12 09:30:09;;;;;;;10.48;2.58;;;;;;;;;;5008814;28;20099;-69
2022/06/12 09:32:56;;;;;;;7.13;2.67;;;;;;;;;;5009964;28;20021;-71
2022/06/12 09:35:21;;;;;;;8.63;2.28;;;;;;;;;;5011879;28;20476;-69
2022/06/12 09:40:48;;;;;;;9.40;3.13;;;;;;;;;;5004454;28;20043;-74
2022/06/12 09:43:13;;;;;;;7.03;2.60;;;;;;;;;;4997041;28;20033;-71
2022/06/12 09:45:50;;;;;;;10.20;2.88;;;;;;;;;;5005044;28;20033;-71
2022/06/12 09:48:20;;;;;;;8.35;2.92;;;;;;;;;;5006617;28;20116;-72
2022/06/12 09:51:03;;;;;;;10.48;2.75;;;;;;;;;;5011521;28;20028;-73
2022/06/12 09:53:46;;;;;;;9.60;2.80;;;;;;;;;;5002893;28;20018;-73
2022/06/12 09:56:18;;;;;;;8.32;3.35;;;;;;;;;;5004550;28;20839;-71
2022/06/12 09:58:47;;;;;;;14.05;3.60;;;;;;;;;;5006429;28;20022;-71
2022/06/12 10:01:24;;;;;;;7.22;3.05;;;;;;;;;;5012477;28;20029;-72
2022/06/12 10:04:06;;;;;;;12.77;3.10;;;;;;;;;;5008120;28;20463;-75
2022/06/12 10:06:52;;;;;;;12.00;2.75;;;;;;;;;;5005223;28;20014;-73
2022/06/12 10:09:20;;;;;;;9.52;2.60;;;;;;;;;;5008580;28;20032;-74
2022/06/12 10:11:51;;;;;;;13.52;2.80;;;;;;;;;;5003658;28;20080;-74
2022/06/12 10:14:32;;;;;;;7.43;2.53;;;;;;;;;;5005684;28;20109;-76
2022/06/12 10:16:57;;;;;;;8.98;2.70;;;;;;;;;;4998970;28;20540;-74
2022/06/12 10:19:26;;;;;;;8.82;2.47;;;;;;;;;;5012568;28;20068;-71
2022/06/12 10:21:53;;;;;;;9.70;2.08;;;;;;;;;;5000510;28;20034;-71
2022/06/12 10:24:19;;;;;;;7.57;2.30;;;;;;;;;;5011867;28;20416;-71
2022/06/12 10:26:59;;;;;;;13.23;3.10;;;;;;;;;;5005498;28;20418;-70
2022/06/12 10:29:25;;;;;;;8.30;3.38;;;;;;;;;;5006430;28;20022;-70
2022/06/12 10:31:56;;;;;;;9.65;2.40;;;;;;;;;;4999608;28;20018;-71
2022/06/12 10:34:23;;;;;;;9.48;2.70;;;;;;;;;;5007263;28;20076;-70
2022/06/12 10:36:50;;;;;;;7.95;3.33;;;;;;;;;;5012011;28;20049;-72
2022/06/12 10:39:15;;;;;;;8.27;2.60;;;;;;;;;;5001388;28;20180;-71
2022/06/12 10:41:43;;;;;;;10.00;2.70;;;;;;;;;;5006035;28;20113;-71
2022/06/12 10:44:24;;;;;;;8.82;2.47;;;;;;;;;;4995854;28;20029;-76
2022/06/12 10:46:50;;;;;;;8.93;2.55;;;;;;;;;;5006046;28;20010;-72
2022/06/12 10:49:17;;;;;;;8.43;3.03;;;;;;;;;;5003886;28;20026;-73
2022/06/12 10:51:43;;;;;;;10.32;2.58;;;;;;;;;;5004498;28;20088;-72
2022/06/12 10:54:12;;;;;;;10.38;2.85;;;;;;;;;;5005802;28;20384;-72
2022/06/12 10:56:42;;;;;;;6.85;2.40;;;;;;;;;;5007385;28;20433;-73
2022/06/12 10:59:10;;;;;;;10.38;2.47;;;;;;;;;;5008293;28;20038;-73
2022/06/12 11:01:42;;;;;;;8.30;2.47;;;;;;;;;;5008981;28;20533;-74
2022/06/12 11:04:22;;;;;;;7.30;2.25;;;;;;;;;;4999738;28;20022;-72
2022/06/12 11:06:55;;;;;;;9.75;3.38;;;;;;;;;;5001857;28;20443;-74
2022/06/12 11:09:39;;;;;;;10.63;2.70;;;;;;;;;;5013627;28;20026;-73
2022/06/12 11:12:12;;;;;;;7.47;2.67;;;;;;;;;;5002951;28;20068;-72
2022/06/12 11:14:42;;;;;;;9.77;2.80;;;;;;;;;;5008576;28;20408;-72
2022/06/12 11:17:19;;;;;;;10.25;2.40;;;;;;;;;;5011207;28;20029;-72
2022/06/12 11:20:04;;;;;;;8.25;2.45;;;;;;;;;;4992178;28;20061;-76
2022/06/12 11:22:38;;;;;;;11.15;2.40;;;;;;;;;;5003618;28;20049;-76
2022/06/12 11:25:13;;;;;;;9.70;2.25;;;;;;;;;;5002040;28;20453;-74
2022/06/12 11:27:41;;;;;;;9.20;2.50;;;;;;;;;;5006273;28;20026;-73
2022/06/12 11:30:06;;;;;;;6.65;2.47;;;;;;;;;;5003336;28;20334;-71
2022/06/12 11:32:43;;;;;;;9.23;2.60;;;;;;;;;;4997329;28;20032;-72
2022/06/12 11:35:33;;;;;;;9.00;3.22;;;;;;;;;;5000172;28;20048;-72
2022/06/12 11:37:58;;;;;;;11.82;2.30;;;;;;;;;;5000451;28;20117;-70
2022/06/12 11:40:44;;;;;;;7.55;2.47;;;;;;;;;;5003351;28;20381;-75
2022/06/12 11:43:23;;;;;;;10.23;2.85;;;;;;;;;;5001507;28;20052;-73
2022/06/12 11:45:59;;;;;;;10.05;3.00;;;;;;;;;;4996394;28;20046;-72
2022/06/12 11:48:47;;;;;;;10.27;2.60;;;;;;;;;;4984676;28;20022;-72
2022/06/12 11:51:33;;;;;;;10.13;3.55;;;;;;;;;;5000706;28;20060;-75
2022/06/12 11:54:01;;;;;;;12.43;2.78;;;;;;;;;;4997197;28;20026;-71
2022/06/12 11:56:44;;;;;;;8.10;2.50;;;;;;;;;;5002258;28;20053;-74
2022/06/12 11:59:10;;;;;;;;;;;;;;;;;;4999785;28;20036;-71
2022/06/12 12:01:38;;;;;;;7.80;2.72;;;;;;;;;;5005561;28;19913;-75
2022/06/12 12:04:09;;;;;;;7.13;2.40;;;;;;;;;;5005524;28;20048;-72
2022/06/12 12:06:38;;;;;;;10.32;2.50;;;;;;;;;;4980532;28;20032;-71
2022/06/12 12:09:15;;;;;;;8.80;2.45;;;;;;;;;;5000430;28;20018;-72
2022/06/12 12:11:42;;;;;;;9.10;2.28;;;;;;;;;;4996973;28;20084;-71
2022/06/12 12:14:12;;;;;;;6.63;2.50;;;;;;;;;;4998133;28;20049;-71
2022/06/12 12:16:40;;;;;;;8.05;2.30;;;;;;;;;;5003597;28;20022;-72
2022/06/12 12:19:11;;;;;;;5.15;2.30;;;;;;;;;;5001269;28;20048;-75
2022/06/12 12:21:40;;;;;;;6.90;2.17;;;;;;;;;;5001171;28;20018;-73
2022/06/12 12:24:07;;;;;;;8.38;2.80;;;;;;;;;;5006229;28;20395;-72
2022/06/12 12:26:37;;;;;;;5.30;2.17;;;;;;;;;;5009336;28;20168;-74
2022/06/12 12:29:04;;;;;;;5.47;2.00;;;;;;;;;;5002535;28;20076;-72
2022/06/12 12:31:29;;;;;;;3.00;1.65;;;;;;;;;;5001571;28;20022;-73
2022/06/12 12:33:56;;;;;;;8.93;2.28;;;;;;;;;;5007398;28;20421;-71
2022/06/12 12:42:05;;;;;;;11.07;2.33;;;;;;;;;;5005495;28;20044;-71
2022/06/12 12:44:39;;;;;;;7.03;2.40;;;;;;;;;;5005877;28;20384;-71
2022/06/12 12:47:36;;;;;;;17.60;2.55;;;;;;;;;;5002526;28;20179;-71
2022/06/12 12:50:04;;;;;;;5.28;1.70;;;;;;;;;;4980326;28;20064;-75
2022/06/12 12:52:39;;;;;;;5.55;2.13;;;;;;;;;;5009313;28;20180;-72
2022/06/12 12:55:05;;;;;;;14.07;2.53;;;;;;;;;;5008249;28;20451;-74
2022/06/12 12:57:35;;;;;;;5.47;1.92;;;;;;;;;;5006281;28;20026;-74
2022/06/12 13:00:02;;;;;;;6.00;1.83;;;;;;;;;;5009847;28;20021;-77
2022/06/12 13:02:29;;;;;;;6.07;2.00;;;;;;;;;;5005113;28;20083;-73
2022/06/12 13:05:14;;;;;;;10.20;2.17;;;;;;;;;;4993390;28;20029;-78
2022/06/12 13:07:59;;;;;;;9.40;1.85;;;;;;;;;;4999760;28;20352;-67
2022/06/12 13:10:34;;;;;;;6.63;2.03;;;;;;;;;;5006331;28;20168;-72
2022/06/12 13:13:09;;;;;;;8.48;2.03;;;;;;;;;;5009370;28;20023;-71
2022/06/12 13:15:46;;;;;;;4.20;1.70;;;;;;;;;;5005949;28;20391;-74
2022/06/12 13:18:12;;;;;;;5.20;2.25;;;;;;;;;;5006886;28;20050;-74
2022/06/12 13:20:56;;;;;;;8.63;1.90;;;;;;;;;;4999934;28;22196;-70
2022/06/12 13:23:34;;;;;;;4.38;1.55;;;;;;;;;;5000392;28;20037;-73
2022/06/12 13:26:01;;;;;;;5.47;1.80;;;;;;;;;;4998088;28;20022;-75
2022/06/12 13:28:28;;;;;;;5.25;1.70;;;;;;;;;;4999306;28;20049;-70
2022/06/12 13:30:54;;;;;;;5.05;1.80;;;;;;;;;;4998542;28;20033;-72
2022/06/12 13:33:24;;;;;;;5.82;1.88;;;;;;;;;;5002799;28;20041;-72
2022/06/12 13:35:52;;;;;;;5.18;1.58;;;;;;;;;;5004126;28;20387;-72
2022/06/12 13:38:28;;;;;;;7.63;1.90;;;;;;;;;;5003328;28;20108;-72
2022/06/12 13:40:56;;;;;;;4.78;2.05;;;;;;;;;;5006768;28;20078;-73
2022/06/12 13:43:23;;;;;;;10.05;2.10;;;;;;;;;;5006044;28;20562;-70
2022/06/12 13:45:49;;;;;;;3.90;1.80;;;;;;;;;;4999820;28;20022;-72
2022/06/12 13:48:25;;;;;;;7.78;1.95;;;;;;;;;;4996158;28;20068;-72
2022/06/12 13:50:54;;;;;;;5.68;2.38;;;;;;;;;;5000163;28;20470;-71
2022/06/12 13:53:20;;;;;;;7.45;2.00;;;;;;;;;;4981598;28;20529;-69
2022/06/12 13:55:59;;;;;;;6.37;2.00;;;;;;;;;;4994799;28;20038;-70
2022/06/12 13:58:27;;;;;;;4.60;1.60;;;;;;;;;;4993605;28;20681;-71
2022/06/12 14:00:54;;;;;;;7.68;2.55;;;;;;;;;;5005042;28;20055;-72
2022/06/12 14:03:20;;;;;;;9.23;2.42;;;;;;;;;;4995417;28;20030;-71
2022/06/12 14:05:50;;;;;;;4.55;1.38;;;;;;;;;;4996908;28;20030;-73
2022/06/12 14:08:16;;;;;;;7.30;1.60;;;;;;;;;;5000158;28;20030;-71
2022/06/12 14:10:42;;;;;;;6.18;1.83;;;;;;;;;;5007529;28;20021;-74
2022/06/12 14:13:12;;;;;;;7.97;2.45;;;;;;;;;;4994281;28;20029;-73
2022/06/12 14:15:39;;;;;;;5.85;1.73;;;;;;;;;;5000600;28;20061;-71
2022/06/12 14:18:05;;;;;;;3.65;1.20;;;;;;;;;;4998518;28;20018;-73
2022/06/12 14:20:32;;;;;;;8.82;1.50;;;;;;;;;;5006528;28;20024;-72
2022/06/12 14:22:59;;;;;;;5.75;1.20;;;;;;;;;;4999583;28;20031;-76
2022/06/12 14:25:29;;;;;;;5.70;1.20;;;;;;;;;;4998556;28;20153;-72
2022/06/12 14:27:54;;;;;;;4.13;1.40;;;;;;;;;;4999460;28;20079;-71
2022/06/12 14:30:40;;;;;;;5.63;1.45;;;;;;;;;;5002796;28;20018;-73
2022/06/12 14:33:26;;;;;;;26.92;2.65;;;;;;;;;;4997975;28;20011;-75
2022/06/12 14:35:52;;;;;;;5.68;1.60;;;;;;;;;;5000364;28;20034;-74
2022/06/12 14:38:19;;;;;;;3.53;1.30;;;;;;;;;;4997261;28;20042;-71
2022/06/12 14:40:44;;;;;;;4.88;1.35;;;;;;;;;;5002325;28;20408;-73
2022/06/12 14:43:11;;;;;;;5.17;1.30;;;;;;;;;;5010556;28;20137;-73
2022/06/12 14:45:40;;;;;;;8.52;1.30;;;;;;;;;;5013740;28;20038;-75
2022/06/12 14:48:09;;;;;;;5.45;1.45;;;;;;;;;;5006156;28;20014;-75
2022/06/12 14:50:35;;;;;;;2.63;1.30;;;;;;;;;;5011210;28;20104;-74
2022/06/12 14:53:01;;;;;;;3.00;1.20;;;;;;;;;;5018473;28;20105;-72
2022/06/12 14:55:26;;;;;;;3.50;1.15;;;;;;;;;;4993362;28;20029;-70
2022/06/12 14:57:51;;;;;;;3.57;1.23;;;;;;;;;;5005272;28;20026;-74
2022/06/12 15:00:19;;;;;;;4.30;0.90;;;;;;;;;;4999880;28;20014;-74
2022/06/12 15:02:44;;;;;;;3.42;0.95;;;;;;;;;;4981305;28;20164;-76
2022/06/12 15:05:14;;;;;;;3.45;1.00;;;;;;;;;;5007341;28;20113;-82
2022/06/12 15:07:48;;;;;;;2.92;1.17;;;;;;;;;;5104412;27;20443;-76
2022/06/12 15:10:13;;;;;;;4.13;1.10;;;;;;;;;;5086578;28;20393;-77
2022/06/12 15:12:40;;;;;;;5.78;1.17;;;;;;;;;;5086878;28;20121;-82